createdAt,value
2022-08-29T00:00:08.690Z,12.20
2022-08-29T00:02:48.941Z,10.90
2022-08-29T00:05:17.740Z,8.43
2022-08-29T00:07:46.310Z,8.23
2022-08-29T00:10:14.923Z,4.63
2022-08-29T00:12:43.487Z,6.07
2022-08-29T00:15:17.745Z,11.77
2022-08-29T00:17:47.668Z,6.97
2022-08-29T00:20:19.050Z,4.30
2022-08-29T00:22:48.203Z,4.77
2022-08-29T00:25:16.776Z,4.23
2022-08-29T00:27:49.505Z,7.20
2022-08-29T00:30:18.768Z,8.13
2022-08-29T00:32:48.710Z,9.40
2022-08-29T00:35:18.550Z,4.80
2022-08-29T00:37:47.128Z,10.20
2022-08-29T00:40:17.834Z,6.30
2022-08-29T00:42:46.363Z,5.70
2022-08-29T00:45:15.040Z,4.03
2022-08-29T00:47:47.878Z,6.57
2022-08-29T00:50:24.512Z,7.10
2022-08-29T00:52:53.045Z,4.40
2022-08-29T00:55:22.984Z,4.80
2022-08-29T00:57:54.409Z,3.10
2022-08-29T01:00:23.195Z,4.37
2022-08-29T01:02:54.408Z,7.77
2022-08-29T01:05:22.992Z,4.03
2022-08-29T01:07:51.959Z,9.33
2022-08-29T01:10:34.825Z,18.40
2022-08-29T01:13:03.797Z,3.47
2022-08-29T01:15:32.820Z,6.67
2022-08-29T01:18:02.780Z,8.90
2022-08-29T01:20:35.427Z,6.83
2022-08-29T01:23:06.748Z,4.17
2022-08-29T01:25:37.832Z,5.37
2022-08-29T01:28:08.339Z,3.70
2022-08-29T01:30:36.864Z,4.03
2022-08-29T01:33:05.457Z,10.17
2022-08-29T01:35:36.343Z,4.10
2022-08-29T01:38:04.850Z,6.67
2022-08-29T01:40:35.673Z,3.80
2022-08-29T01:43:04.197Z,6.33
2022-08-29T01:45:32.840Z,7.97
2022-08-29T01:48:03.538Z,3.47
2022-08-29T01:50:33.085Z,7.70
2022-08-29T01:53:02.367Z,4.10
2022-08-29T01:55:30.983Z,9.20
2022-08-29T01:58:00.888Z,8.37
2022-08-29T02:00:29.720Z,7.93
2022-08-29T02:03:00.956Z,12.10
2022-08-29T02:05:30.136Z,5.13
2022-08-29T02:07:59.028Z,9.93
2022-08-29T02:10:27.541Z,6.60
2022-08-29T02:12:56.091Z,8.63
2022-08-29T02:15:26.110Z,6.97
2022-08-29T02:17:54.597Z,5.37
2022-08-29T02:20:23.166Z,6.83
2022-08-29T02:22:51.957Z,9.30
2022-08-29T02:25:37.993Z,3.93
2022-08-29T02:28:06.581Z,4.57
2022-08-29T02:30:36.501Z,3.50
2022-08-29T02:33:05.070Z,6.20
2022-08-29T02:35:35.166Z,7.50
2022-08-29T02:38:05.810Z,11.10
2022-08-29T02:40:34.482Z,6.00
2022-08-29T02:43:03.527Z,7.70
2022-08-29T02:45:32.077Z,4.20
2022-08-29T02:48:02.002Z,8.80
2022-08-29T02:50:30.591Z,5.33
2022-08-29T02:52:59.195Z,8.53
2022-08-29T02:55:27.905Z,5.03
2022-08-29T02:57:56.684Z,3.43
2022-08-29T03:00:26.484Z,13.23
2022-08-29T03:02:55.216Z,4.10
2022-08-29T03:05:27.519Z,5.43
2022-08-29T03:07:56.284Z,6.00
2022-08-29T03:10:25.030Z,10.17
2022-08-29T03:12:53.627Z,7.13
2022-08-29T03:15:22.337Z,4.03
2022-08-29T03:17:51.480Z,9.90
2022-08-29T03:20:20.763Z,6.73
2022-08-29T03:22:50.807Z,11.30
2022-08-29T03:25:19.457Z,7.50
2022-08-29T03:27:47.948Z,5.40
2022-08-29T03:30:17.474Z,7.83
2022-08-29T03:32:46.050Z,7.23
2022-08-29T03:35:14.743Z,8.23
2022-08-29T03:37:43.324Z,9.80
2022-08-29T03:40:13.899Z,4.10
2022-08-29T03:42:43.337Z,8.07
2022-08-29T03:45:14.002Z,6.73
2022-08-29T03:47:43.045Z,13.97
2022-08-29T03:50:12.175Z,7.40
2022-08-29T03:52:44.165Z,7.10
2022-08-29T03:55:14.339Z,5.40
2022-08-29T03:57:43.141Z,7.63
2022-08-29T04:00:16.128Z,7.23
2022-08-29T04:02:45.471Z,10.90
2022-08-29T04:05:14.436Z,10.70
2022-08-29T04:07:45.415Z,5.80
2022-08-29T04:10:16.797Z,13.33
2022-08-29T04:12:45.367Z,11.53
2022-08-29T04:15:14.111Z,7.33
2022-08-29T04:17:45.612Z,6.03
2022-08-29T04:20:25.067Z,6.47
2022-08-29T04:22:54.400Z,9.33
2022-08-29T04:25:24.955Z,11.93
2022-08-29T04:27:53.582Z,6.87
2022-08-29T04:30:23.700Z,10.27
2022-08-29T04:32:52.277Z,6.83
2022-08-29T04:35:20.998Z,7.73
2022-08-29T04:37:49.619Z,7.60
2022-08-29T04:40:19.306Z,5.93
2022-08-29T04:42:49.472Z,7.17
2022-08-29T04:45:22.281Z,9.50
2022-08-29T04:47:50.857Z,6.20
2022-08-29T04:50:20.735Z,12.77
2022-08-29T04:52:49.386Z,10.80
2022-08-29T04:55:21.641Z,8.73
2022-08-29T04:57:53.353Z,14.00
2022-08-29T05:00:23.454Z,8.73
2022-08-29T05:02:51.991Z,13.37
2022-08-29T05:05:20.750Z,17.30
2022-08-29T05:07:49.282Z,8.50
2022-08-29T05:10:19.068Z,14.23
2022-08-29T05:12:47.761Z,6.90
2022-08-29T05:15:17.856Z,13.70
2022-08-29T05:17:46.452Z,9.23
2022-08-29T05:20:15.053Z,11.43
2022-08-29T05:22:43.677Z,11.67
2022-08-29T05:25:18.041Z,9.70
2022-08-29T05:27:47.011Z,12.13
2022-08-29T05:30:19.945Z,8.10
2022-08-29T05:33:03.553Z,19.40
2022-08-29T05:35:32.172Z,11.77
2022-08-29T05:38:00.709Z,12.67
2022-08-29T05:40:29.393Z,11.80
2022-08-29T05:42:58.139Z,23.93
2022-08-29T05:45:28.042Z,8.93
2022-08-29T05:47:56.652Z,14.70
2022-08-29T05:50:25.405Z,25.07
2022-08-29T05:52:54.061Z,12.70
2022-08-29T05:55:22.873Z,13.07
2022-08-29T05:57:54.492Z,12.50
2022-08-29T06:00:23.451Z,14.43
2022-08-29T06:02:54.849Z,9.23
2022-08-29T06:05:23.488Z,13.53
2022-08-29T06:07:52.007Z,10.73
2022-08-29T06:10:20.822Z,11.30
2022-08-29T06:12:49.324Z,11.60
2022-08-29T06:15:17.924Z,13.17
2022-08-29T06:17:46.473Z,15.83
2022-08-29T06:20:16.616Z,14.47
2022-08-29T06:22:45.139Z,19.30
2022-08-29T06:25:37.497Z,6.90
2022-08-29T06:28:02.309Z,10.87
2022-08-29T06:30:33.585Z,15.07
2022-08-29T06:33:02.538Z,7.20
2022-08-29T06:35:33.222Z,11.23
2022-08-29T06:38:01.771Z,13.07
2022-08-29T06:40:30.417Z,8.80
2022-08-29T06:42:59.004Z,14.00
2022-08-29T06:45:27.629Z,11.93
2022-08-29T06:47:56.187Z,18.23
2022-08-29T06:50:24.915Z,8.57
2022-08-29T06:52:55.719Z,14.53
2022-08-29T06:55:24.475Z,11.93
2022-08-29T06:57:53.045Z,8.90
2022-08-29T07:00:22.848Z,11.40
2022-08-29T07:02:52.457Z,8.10
2022-08-29T07:05:21.664Z,7.50
2022-08-29T07:07:50.377Z,15.53
2022-08-29T07:10:22.848Z,15.93
2022-08-29T07:12:51.997Z,11.27
2022-08-29T07:15:20.701Z,12.60
2022-08-29T07:17:49.332Z,8.83
2022-08-29T07:20:18.362Z,11.40
2022-08-29T07:22:52.176Z,12.93
2022-08-29T07:25:23.230Z,14.90
2022-08-29T07:27:51.958Z,15.83
2022-08-29T07:30:20.844Z,14.63
2022-08-29T07:32:49.457Z,18.63
2022-08-29T07:35:29.631Z,12.03
2022-08-29T07:37:59.594Z,10.83
2022-08-29T07:40:29.617Z,18.43
2022-08-29T07:42:58.537Z,19.70
2022-08-29T07:45:27.129Z,6.60
2022-08-29T07:47:55.697Z,16.17
2022-08-29T07:50:24.354Z,15.60
2022-08-29T07:52:52.846Z,17.60
2022-08-29T07:55:22.934Z,10.87
2022-08-29T07:57:53.925Z,8.97
2022-08-29T08:00:22.464Z,21.70
2022-08-29T08:02:51.461Z,13.93
2022-08-29T08:05:20.203Z,14.07
2022-08-29T08:07:55.664Z,11.17
2022-08-29T08:10:25.014Z,11.27
2022-08-29T08:12:54.912Z,9.10
2022-08-29T08:15:23.522Z,15.37
2022-08-29T08:17:52.049Z,7.83
2022-08-29T08:20:20.618Z,14.63
2022-08-29T08:22:49.242Z,18.40
2022-08-29T08:25:17.845Z,12.63
2022-08-29T08:27:54.251Z,9.27
2022-08-29T08:30:22.782Z,11.40
2022-08-29T08:32:55.113Z,9.33
2022-08-29T08:35:23.804Z,11.17
2022-08-29T08:37:53.365Z,8.13
2022-08-29T08:40:26.676Z,9.50
2022-08-29T08:42:58.556Z,14.10
2022-08-29T08:45:29.669Z,9.10
2022-08-29T08:48:01.153Z,10.40
2022-08-29T08:50:41.845Z,8.60
2022-08-29T08:53:14.224Z,17.70
2022-08-29T08:55:44.223Z,9.33
2022-08-29T08:58:29.319Z,14.47
2022-08-29T09:01:00.592Z,13.33
2022-08-29T09:04:04.044Z,12.03
2022-08-29T09:06:48.989Z,14.63
2022-08-29T09:09:22.333Z,18.87
2022-08-29T09:11:56.565Z,11.30
2022-08-29T09:14:37.398Z,13.10
2022-08-29T09:17:06.722Z,10.13
2022-08-29T09:19:35.244Z,9.80
2022-08-29T09:22:20.477Z,13.10
2022-08-29T09:24:50.571Z,10.03
2022-08-29T09:27:19.822Z,7.10
2022-08-29T09:29:49.852Z,11.73
2022-08-29T09:32:22.373Z,12.93
2022-08-29T09:35:07.852Z,7.00
2022-08-29T09:37:37.225Z,14.20
2022-08-29T09:40:10.612Z,11.10
2022-08-29T09:42:41.317Z,9.03
2022-08-29T09:45:19.268Z,17.67
2022-08-29T09:47:47.827Z,16.37
2022-08-29T09:50:21.700Z,10.07
2022-08-29T09:52:53.549Z,9.73
2022-08-29T09:55:25.322Z,5.80
2022-08-29T09:57:55.541Z,9.90
2022-08-29T10:00:31.580Z,11.10
2022-08-29T10:03:01.025Z,13.13
2022-08-29T10:05:39.145Z,8.20
2022-08-29T10:08:08.177Z,8.13
2022-08-29T10:10:38.336Z,5.87
2022-08-29T10:13:10.137Z,9.23
2022-08-29T10:15:51.200Z,5.33
2022-08-29T10:18:28.606Z,11.97
2022-08-29T10:21:01.498Z,7.67
2022-08-29T10:23:33.746Z,6.03
2022-08-29T10:26:04.997Z,9.73
2022-08-29T10:28:36.067Z,6.73
2022-08-29T10:31:08.832Z,5.23
2022-08-29T10:33:55.111Z,6.60
2022-08-29T10:36:27.037Z,7.70
2022-08-29T10:38:57.775Z,6.90
2022-08-29T10:41:30.717Z,9.57
2022-08-29T10:44:09.150Z,9.60
2022-08-29T10:46:47.017Z,8.97
2022-08-29T10:49:21.090Z,6.73
2022-08-29T10:51:52.488Z,14.30
2022-08-29T10:54:24.106Z,13.33
2022-08-29T10:56:52.652Z,5.57
2022-08-29T10:59:24.280Z,7.20
2022-08-29T11:01:55.245Z,4.03
2022-08-29T11:04:25.890Z,6.20
2022-08-29T11:06:57.934Z,4.90
2022-08-29T11:09:29.052Z,6.93
2022-08-29T11:12:07.200Z,6.57
2022-08-29T11:14:39.080Z,10.97
2022-08-29T11:17:10.933Z,4.47
2022-08-29T11:19:47.497Z,10.93
2022-08-29T11:22:19.066Z,4.83
2022-08-29T11:24:47.747Z,4.40
2022-08-29T11:27:21.278Z,8.63
2022-08-29T11:29:52.851Z,5.13
2022-08-29T11:32:26.292Z,7.30
2022-08-29T11:35:07.140Z,12.90
2022-08-29T11:37:57.509Z,4.50
2022-08-29T11:43:27.204Z,6.43
2022-08-29T11:45:59.523Z,6.63
2022-08-29T11:48:35.144Z,5.80
2022-08-29T11:51:28.074Z,4.73
2022-08-29T11:53:57.057Z,6.77
2022-08-29T11:56:28.376Z,8.10
2022-08-29T11:58:57.452Z,8.87
2022-08-29T12:02:00.726Z,4.10
2022-08-29T12:04:53.644Z,4.97
2022-08-29T12:07:23.319Z,7.20
2022-08-29T12:09:53.465Z,4.60
2022-08-29T12:12:37.616Z,4.30
2022-08-29T12:15:41.750Z,4.63
2022-08-29T12:18:36.246Z,6.30
2022-08-29T12:21:25.406Z,9.03
2022-08-29T12:23:53.993Z,7.00
2022-08-29T12:26:41.197Z,5.23
2022-08-29T12:29:17.162Z,5.33
2022-08-29T12:32:18.747Z,5.13
2022-08-29T12:35:03.090Z,7.57
2022-08-29T12:37:43.339Z,4.37
2022-08-29T12:40:33.313Z,10.10
2022-08-29T12:43:26.758Z,4.50
2022-08-29T12:45:55.353Z,5.37
2022-08-29T12:48:25.707Z,5.23
2022-08-29T12:50:54.331Z,6.10
2022-08-29T12:53:25.316Z,4.13
2022-08-29T12:55:56.048Z,3.77
2022-08-29T12:58:39.694Z,9.40
2022-08-29T13:01:10.722Z,3.70
2022-08-29T13:03:39.262Z,3.57
2022-08-29T13:06:09.695Z,3.40
2022-08-29T13:08:39.604Z,3.53
2022-08-29T13:11:09.143Z,3.77
2022-08-29T13:13:37.979Z,8.03
2022-08-29T13:16:09.262Z,5.67
2022-08-29T13:18:59.849Z,7.97
2022-08-29T13:21:27.121Z,5.27
2022-08-29T13:24:02.005Z,4.93
2022-08-29T13:26:32.469Z,6.90
2022-08-29T13:29:02.225Z,8.93
2022-08-29T13:31:33.021Z,3.60
2022-08-29T13:34:24.540Z,9.33
2022-08-29T13:37:06.340Z,3.73
2022-08-29T13:39:45.804Z,4.17
2022-08-29T13:42:29.499Z,7.37
2022-08-29T13:45:16.065Z,7.07
2022-08-29T13:48:02.779Z,5.70
2022-08-29T13:50:32.000Z,2.70
2022-08-29T13:53:00.619Z,8.03
2022-08-29T13:55:30.593Z,7.10
2022-08-29T13:57:59.203Z,3.50
2022-08-29T14:00:32.437Z,6.20
2022-08-29T14:03:05.549Z,5.07
2022-08-29T14:05:35.201Z,4.60
2022-08-29T14:08:04.251Z,4.43
2022-08-29T14:10:34.205Z,8.37
2022-08-29T14:13:02.907Z,3.33
2022-08-29T14:15:31.642Z,4.00
2022-08-29T14:18:00.254Z,3.80
2022-08-29T14:20:28.778Z,4.00
2022-08-29T14:22:57.343Z,9.37
2022-08-29T14:25:25.914Z,4.03
2022-08-29T14:27:55.768Z,4.37
2022-08-29T14:30:24.964Z,8.30
2022-08-29T14:32:53.563Z,2.90
2022-08-29T14:35:25.906Z,8.17
2022-08-29T14:37:56.380Z,3.83
2022-08-29T14:40:25.762Z,5.10
2022-08-29T14:42:55.798Z,3.00
2022-08-29T14:45:24.312Z,5.70
2022-08-29T14:47:52.893Z,5.77
2022-08-29T14:50:21.601Z,4.07
2022-08-29T14:52:50.085Z,2.80
2022-08-29T14:55:19.255Z,3.07
2022-08-29T14:57:47.753Z,4.83
2022-08-29T15:00:19.581Z,7.63
2022-08-29T15:02:48.182Z,3.30
2022-08-29T15:05:16.784Z,3.00
2022-08-29T15:07:45.410Z,3.77
2022-08-29T15:10:14.661Z,4.40
2022-08-29T15:12:43.227Z,2.77
2022-08-29T15:15:12.540Z,3.60
2022-08-29T15:17:43.621Z,2.50
2022-08-29T15:23:01.990Z,3.10
2022-08-29T15:25:30.593Z,3.77
2022-08-29T15:27:59.150Z,6.43
2022-08-29T15:30:27.808Z,2.70
2022-08-29T15:32:57.804Z,5.60
2022-08-29T15:35:26.466Z,6.50
2022-08-29T15:37:55.045Z,3.13
2022-08-29T15:40:23.828Z,4.03
2022-08-29T15:42:52.606Z,7.60
2022-08-29T15:45:22.613Z,3.00
2022-08-29T15:47:53.969Z,3.67
2022-08-29T15:50:24.446Z,8.63
2022-08-29T15:52:53.043Z,2.87
2022-08-29T15:55:21.777Z,2.50
2022-08-29T15:57:51.859Z,3.40
2022-08-29T16:00:30.538Z,3.80
2022-08-29T16:03:01.240Z,2.23
2022-08-29T16:05:31.566Z,1.97
2022-08-29T16:08:00.078Z,5.10
2022-08-29T16:10:28.704Z,2.80
2022-08-29T16:12:57.258Z,2.27
2022-08-29T16:15:27.669Z,3.13
2022-08-29T16:17:56.300Z,7.10
2022-08-29T16:20:24.907Z,5.03
2022-08-29T16:22:54.781Z,2.90
2022-08-29T16:25:23.455Z,4.83
2022-08-29T16:27:52.002Z,2.20
2022-08-29T16:30:20.718Z,8.13
2022-08-29T16:32:50.078Z,2.93
2022-08-29T16:35:18.893Z,2.63
2022-08-29T16:37:48.100Z,2.40
2022-08-29T16:40:33.281Z,2.27
2022-08-29T16:43:02.671Z,2.10
2022-08-29T16:45:31.471Z,5.40
2022-08-29T16:48:00.117Z,4.83
2022-08-29T16:50:28.972Z,3.47
2022-08-29T16:52:57.589Z,4.40
2022-08-29T16:55:26.325Z,2.40
2022-08-29T16:58:13.641Z,1.80
2022-08-29T17:00:42.213Z,1.40
2022-08-29T17:03:10.806Z,1.37
2022-08-29T17:05:39.596Z,2.00
2022-08-29T17:08:07.018Z,1.33
2022-08-29T17:10:34.396Z,1.37
2022-08-29T17:13:03.174Z,1.23
2022-08-29T17:15:30.604Z,2.90
2022-08-29T17:18:00.035Z,1.17
2022-08-29T17:20:28.657Z,0.93
2022-08-29T17:22:57.203Z,1.57
2022-08-29T17:25:25.777Z,5.53
2022-08-29T17:28:17.116Z,1.40
2022-08-29T17:30:44.593Z,1.40
2022-08-29T17:33:13.140Z,4.27
2022-08-29T17:35:41.722Z,1.50
2022-08-29T17:38:10.408Z,1.00
2022-08-29T17:40:40.781Z,1.40
2022-08-29T17:43:10.950Z,1.63
2022-08-29T17:45:40.536Z,0.97
2022-08-29T17:48:10.579Z,1.43
2022-08-29T17:50:39.159Z,1.47
2022-08-29T17:53:07.749Z,1.47
2022-08-29T17:55:36.297Z,1.23
2022-08-29T17:58:04.897Z,2.03
2022-08-29T18:00:33.429Z,1.20
2022-08-29T18:03:02.016Z,5.40
2022-08-29T18:05:31.943Z,2.00
2022-08-29T18:08:00.497Z,4.10
2022-08-29T18:10:29.211Z,6.50
2022-08-29T18:12:57.797Z,6.30
2022-08-29T18:15:26.519Z,2.30
2022-08-29T18:17:56.104Z,2.60
2022-08-29T18:20:24.583Z,2.70
2022-08-29T18:22:54.537Z,2.03
2022-08-29T18:25:24.131Z,2.17
2022-08-29T18:27:52.681Z,1.73
2022-08-29T18:30:21.449Z,2.07
2022-08-29T18:32:50.063Z,1.70
2022-08-29T18:35:18.808Z,5.50
2022-08-29T18:37:47.386Z,2.90
2022-08-29T18:40:17.419Z,3.30
2022-08-29T18:42:46.029Z,4.23
2022-08-29T18:45:14.933Z,3.33
2022-08-29T18:47:43.551Z,2.83
2022-08-29T18:50:29.973Z,2.40
2022-08-29T18:52:58.563Z,3.37
2022-08-29T18:55:28.508Z,2.30
2022-08-29T18:57:57.240Z,1.93
2022-08-29T19:00:26.120Z,3.30
2022-08-29T19:02:54.940Z,1.60
2022-08-29T19:05:24.364Z,1.57
2022-08-29T19:07:53.486Z,1.97
2022-08-29T19:10:22.166Z,3.30
2022-08-29T19:12:52.159Z,1.73
2022-08-29T19:15:20.921Z,1.67
2022-08-29T19:17:49.594Z,2.40
2022-08-29T19:20:37.165Z,2.40
2022-08-29T19:23:07.009Z,4.43
2022-08-29T19:25:35.817Z,2.57
2022-08-29T19:28:06.091Z,4.20
2022-08-29T19:30:34.738Z,4.50
2022-08-29T19:33:03.220Z,2.53
2022-08-29T19:35:31.739Z,1.97
2022-08-29T19:38:00.269Z,3.33
2022-08-29T19:40:30.774Z,2.20
2022-08-29T19:43:02.437Z,2.40
2022-08-29T19:45:32.407Z,2.63
2022-08-29T19:48:01.433Z,2.20
2022-08-29T19:50:30.009Z,2.20
2022-08-29T19:52:58.581Z,3.33
2022-08-29T19:55:27.349Z,6.00
2022-08-29T19:57:55.880Z,6.20
2022-08-29T20:00:25.494Z,7.70
2022-08-29T20:02:55.387Z,6.17
2022-08-29T20:05:24.149Z,3.93
2022-08-29T20:07:52.749Z,3.10
2022-08-29T20:10:22.906Z,4.20
2022-08-29T20:12:51.706Z,2.80
2022-08-29T20:15:20.395Z,3.27
2022-08-29T20:17:49.003Z,2.90
2022-08-29T20:20:21.817Z,2.70
2022-08-29T20:22:50.368Z,3.30
2022-08-29T20:25:19.700Z,2.70
2022-08-29T20:27:48.330Z,3.10
2022-08-29T20:30:22.530Z,2.53
2022-08-29T20:32:51.597Z,3.33
2022-08-29T20:35:36.213Z,4.80
2022-08-29T20:38:04.808Z,5.13
2022-08-29T20:40:37.101Z,5.60
2022-08-29T20:43:06.216Z,2.50
2022-08-29T20:45:34.863Z,2.17
2022-08-29T20:48:03.603Z,3.43
2022-08-29T20:50:33.497Z,4.57
2022-08-29T20:53:02.069Z,2.73
2022-08-29T20:55:30.704Z,1.67
2022-08-29T20:57:59.206Z,2.00
2022-08-29T21:00:27.916Z,2.20
2022-08-29T21:03:13.855Z,2.10
2022-08-29T21:05:44.208Z,2.03
2022-08-29T21:08:15.145Z,1.83
2022-08-29T21:10:43.683Z,2.50
2022-08-29T21:13:12.292Z,2.10
2022-08-29T21:15:41.366Z,4.07
2022-08-29T21:18:10.471Z,1.80
2022-08-29T21:20:53.635Z,1.40
2022-08-29T21:23:25.144Z,2.23
2022-08-29T21:25:54.369Z,1.70
2022-08-29T21:28:24.693Z,1.93
2022-08-29T21:30:53.379Z,2.03
2022-08-29T21:33:22.069Z,8.13
2022-08-29T21:35:50.569Z,3.00
2022-08-29T21:38:19.157Z,2.30
2022-08-29T21:40:51.265Z,2.23
2022-08-29T21:43:20.753Z,2.50
2022-08-29T21:45:49.303Z,2.50
2022-08-29T21:48:18.024Z,2.57
2022-08-29T21:50:46.556Z,1.70
2022-08-29T21:53:15.391Z,3.23
2022-08-29T21:55:43.989Z,4.00
2022-08-29T21:58:14.385Z,2.10
2022-08-29T22:00:42.900Z,2.10
2022-08-29T22:03:12.380Z,1.30
2022-08-29T22:05:43.871Z,2.00
2022-08-29T22:08:14.022Z,1.97
2022-08-29T22:10:42.860Z,2.23
2022-08-29T22:13:11.401Z,1.60
2022-08-29T22:15:58.775Z,1.50
2022-08-29T22:18:27.415Z,1.67
2022-08-29T22:20:55.949Z,1.57
2022-08-29T22:23:24.953Z,1.80
2022-08-29T22:25:53.954Z,1.50
2022-08-29T22:28:22.552Z,1.77
2022-08-29T22:30:53.230Z,1.63
2022-08-29T22:33:22.298Z,1.93
2022-08-29T22:35:51.010Z,1.70
2022-08-29T22:38:19.569Z,2.43
2022-08-29T22:40:48.273Z,2.50
2022-08-29T22:43:17.007Z,2.20
2022-08-29T22:45:45.652Z,1.90
2022-08-29T22:48:18.846Z,2.40
2022-08-29T22:50:57.996Z,3.00
2022-08-29T22:53:27.396Z,2.23
2022-08-29T22:55:56.397Z,2.20
2022-08-29T22:58:24.945Z,3.17
2022-08-29T23:00:53.581Z,2.33
2022-08-29T23:03:23.531Z,2.20
2022-08-29T23:05:52.040Z,3.27
2022-08-29T23:08:21.100Z,3.03
2022-08-29T23:10:49.591Z,2.20
2022-08-29T23:13:18.282Z,4.70
2022-08-29T23:15:46.913Z,2.10
2022-08-29T23:18:15.524Z,1.80
2022-08-29T23:20:46.917Z,1.97
2022-08-29T23:23:15.634Z,1.80
2022-08-29T23:25:44.290Z,2.00
2022-08-29T23:28:12.831Z,1.70
2022-08-29T23:30:41.430Z,2.90
2022-08-29T23:33:10.028Z,4.00
2022-08-29T23:35:38.562Z,2.27
2022-08-29T23:38:08.498Z,2.30
2022-08-29T23:40:37.199Z,1.70
2022-08-29T23:43:05.874Z,1.87
2022-08-29T23:45:34.413Z,2.00
2022-08-29T23:48:02.938Z,2.83
2022-08-29T23:50:31.578Z,1.87
2022-08-29T23:53:00.083Z,1.83
2022-08-29T23:55:29.987Z,1.90
2022-08-29T23:57:58.513Z,1.80
